sensor_id;sensor_type;location;lat;lon;timestamp;P1;durP1;ratioP1;P2;durP2;ratioP2
43070;SDS011;36278;47.952;21.714;2024-02-21T00:00:47;29.93;;;26.17;;
43070;SDS011;36278;47.952;21.714;2024-02-21T00:03:13;31.37;;;25.27;;
43070;SDS011;36278;47.952;21.714;2024-02-21T00:05:40;29.17;;;25.37;;
43070;SDS011;36278;47.952;21.714;2024-02-21T00:08:06;30.30;;;25.10;;
43070;SDS011;36278;47.952;21.714;2024-02-21T00:10:32;29.33;;;25.77;;
43070;SDS011;36278;47.952;21.714;2024-02-21T00:12:58;29.77;;;25.43;;
43070;SDS011;36278;47.952;21.714;2024-02-21T00:15:26;28.50;;;25.37;;
43070;SDS011;36278;47.952;21.714;2024-02-21T00:17:52;29.87;;;25.47;;
43070;SDS011;36278;47.952;21.714;2024-02-21T00:20:19;30.27;;;26.03;;
43070;SDS011;36278;47.952;21.714;2024-02-21T00:22:45;32.87;;;26.20;;
43070;SDS011;36278;47.952;21.714;2024-02-21T00:25:11;30.93;;;26.20;;
43070;SDS011;36278;47.952;21.714;2024-02-21T00:27:38;31.70;;;26.87;;
43070;SDS011;36278;47.952;21.714;2024-02-21T00:30:06;29.67;;;26.47;;
43070;SDS011;36278;47.952;21.714;2024-02-21T00:32:33;31.07;;;26.27;;
43070;SDS011;36278;47.952;21.714;2024-02-21T00:34:59;33.67;;;26.43;;
43070;SDS011;36278;47.952;21.714;2024-02-21T00:37:26;33.10;;;27.40;;
43070;SDS011;36278;47.952;21.714;2024-02-21T00:39:53;30.43;;;27.13;;
43070;SDS011;36278;47.952;21.714;2024-02-21T00:42:19;33.37;;;28.87;;
43070;SDS011;36278;47.952;21.714;2024-02-21T00:44:44;33.17;;;28.20;;
43070;SDS011;36278;47.952;21.714;2024-02-21T00:47:10;30.67;;;26.60;;
43070;SDS011;36278;47.952;21.714;2024-02-21T00:49:35;36.57;;;27.97;;
43070;SDS011;36278;47.952;21.714;2024-02-21T00:52:01;33.13;;;26.17;;
43070;SDS011;36278;47.952;21.714;2024-02-21T00:54:26;33.57;;;28.17;;
43070;SDS011;36278;47.952;21.714;2024-02-21T00:56:52;32.17;;;27.13;;
43070;SDS011;36278;47.952;21.714;2024-02-21T00:59:17;35.83;;;28.63;;
43070;SDS011;36278;47.952;21.714;2024-02-21T01:01:43;32.57;;;28.23;;
43070;SDS011;36278;47.952;21.714;2024-02-21T01:04:09;33.10;;;28.93;;
43070;SDS011;36278;47.952;21.714;2024-02-21T01:06:34;35.73;;;29.77;;
43070;SDS011;36278;47.952;21.714;2024-02-21T01:09:00;33.23;;;28.63;;
43070;SDS011;36278;47.952;21.714;2024-02-21T01:11:25;35.70;;;28.97;;
43070;SDS011;36278;47.952;21.714;2024-02-21T01:13:51;35.30;;;29.40;;
43070;SDS011;36278;47.952;21.714;2024-02-21T01:16:16;35.30;;;29.93;;
43070;SDS011;36278;47.952;21.714;2024-02-21T01:18:42;35.17;;;29.40;;
43070;SDS011;36278;47.952;21.714;2024-02-21T01:21:07;34.70;;;29.33;;
43070;SDS011;36278;47.952;21.714;2024-02-21T01:23:34;39.43;;;31.10;;
43070;SDS011;36278;47.952;21.714;2024-02-21T01:26:00;37.27;;;30.63;;
43070;SDS011;36278;47.952;21.714;2024-02-21T01:28:25;36.00;;;29.53;;
43070;SDS011;36278;47.952;21.714;2024-02-21T01:30:51;35.67;;;29.30;;
43070;SDS011;36278;47.952;21.714;2024-02-21T01:33:17;32.70;;;28.27;;
43070;SDS011;36278;47.952;21.714;2024-02-21T01:35:42;32.97;;;28.80;;
43070;SDS011;36278;47.952;21.714;2024-02-21T01:38:08;37.90;;;29.23;;
43070;SDS011;36278;47.952;21.714;2024-02-21T01:40:33;34.43;;;29.70;;
43070;SDS011;36278;47.952;21.714;2024-02-21T01:42:58;33.87;;;28.53;;
43070;SDS011;36278;47.952;21.714;2024-02-21T01:45:24;34.27;;;28.73;;
43070;SDS011;36278;47.952;21.714;2024-02-21T01:47:49;36.10;;;28.80;;
43070;SDS011;36278;47.952;21.714;2024-02-21T01:50:15;37.97;;;29.90;;
43070;SDS011;36278;47.952;21.714;2024-02-21T01:52:45;37.80;;;30.13;;
43070;SDS011;36278;47.952;21.714;2024-02-21T01:55:13;36.37;;;31.67;;
43070;SDS011;36278;47.952;21.714;2024-02-21T01:57:40;35.57;;;30.70;;
43070;SDS011;36278;47.952;21.714;2024-02-21T02:00:08;36.20;;;30.17;;
43070;SDS011;36278;47.952;21.714;2024-02-21T02:02:35;36.57;;;29.37;;
43070;SDS011;36278;47.952;21.714;2024-02-21T02:05:02;35.60;;;30.33;;
43070;SDS011;36278;47.952;21.714;2024-02-21T02:07:28;34.87;;;29.53;;
43070;SDS011;36278;47.952;21.714;2024-02-21T02:09:53;33.87;;;29.07;;
43070;SDS011;36278;47.952;21.714;2024-02-21T02:12:19;35.97;;;29.73;;
43070;SDS011;36278;47.952;21.714;2024-02-21T02:14:44;39.70;;;30.43;;
43070;SDS011;36278;47.952;21.714;2024-02-21T02:17:10;34.97;;;29.53;;
43070;SDS011;36278;47.952;21.714;2024-02-21T02:19:35;34.93;;;30.23;;
43070;SDS011;36278;47.952;21.714;2024-02-21T02:22:06;35.70;;;30.10;;
43070;SDS011;36278;47.952;21.714;2024-02-21T02:24:39;35.33;;;30.17;;
43070;SDS011;36278;47.952;21.714;2024-02-21T02:27:04;39.17;;;29.53;;
43070;SDS011;36278;47.952;21.714;2024-02-21T02:29:31;36.10;;;30.17;;
43070;SDS011;36278;47.952;21.714;2024-02-21T02:31:57;35.23;;;29.60;;
43070;SDS011;36278;47.952;21.714;2024-02-21T02:34:22;36.47;;;30.40;;
43070;SDS011;36278;47.952;21.714;2024-02-21T02:36:48;39.20;;;31.77;;
43070;SDS011;36278;47.952;21.714;2024-02-21T02:39:14;37.70;;;30.53;;
43070;SDS011;36278;47.952;21.714;2024-02-21T02:41:40;38.63;;;31.03;;
43070;SDS011;36278;47.952;21.714;2024-02-21T02:44:05;36.87;;;30.50;;
43070;SDS011;36278;47.952;21.714;2024-02-21T02:46:30;37.43;;;30.63;;
43070;SDS011;36278;47.952;21.714;2024-02-21T02:48:56;38.20;;;31.60;;
43070;SDS011;36278;47.952;21.714;2024-02-21T02:51:21;36.43;;;31.20;;
43070;SDS011;36278;47.952;21.714;2024-02-21T02:53:47;38.63;;;31.43;;
43070;SDS011;36278;47.952;21.714;2024-02-21T02:56:15;39.47;;;31.77;;
43070;SDS011;36278;47.952;21.714;2024-02-21T02:58:42;37.83;;;30.93;;
43070;SDS011;36278;47.952;21.714;2024-02-21T03:01:08;41.37;;;33.00;;
43070;SDS011;36278;47.952;21.714;2024-02-21T03:03:34;39.83;;;33.10;;
43070;SDS011;36278;47.952;21.714;2024-02-21T03:05:59;40.27;;;33.07;;
43070;SDS011;36278;47.952;21.714;2024-02-21T03:08:24;44.70;;;33.57;;
43070;SDS011;36278;47.952;21.714;2024-02-21T03:10:50;40.30;;;34.13;;
43070;SDS011;36278;47.952;21.714;2024-02-21T03:13:15;41.90;;;33.43;;
43070;SDS011;36278;47.952;21.714;2024-02-21T03:15:41;43.10;;;35.50;;
43070;SDS011;36278;47.952;21.714;2024-02-21T03:18:07;43.50;;;33.20;;
43070;SDS011;36278;47.952;21.714;2024-02-21T03:20:32;41.60;;;34.30;;
43070;SDS011;36278;47.952;21.714;2024-02-21T03:22:57;42.70;;;34.47;;
43070;SDS011;36278;47.952;21.714;2024-02-21T03:25:23;47.87;;;34.30;;
43070;SDS011;36278;47.952;21.714;2024-02-21T03:27:48;42.77;;;35.97;;
43070;SDS011;36278;47.952;21.714;2024-02-21T03:30:14;43.90;;;35.73;;
43070;SDS011;36278;47.952;21.714;2024-02-21T03:32:39;44.70;;;34.70;;
43070;SDS011;36278;47.952;21.714;2024-02-21T03:35:05;47.20;;;36.93;;
43070;SDS011;36278;47.952;21.714;2024-02-21T03:37:30;41.33;;;34.20;;
43070;SDS011;36278;47.952;21.714;2024-02-21T03:39:56;43.67;;;34.87;;
43070;SDS011;36278;47.952;21.714;2024-02-21T03:42:21;42.20;;;35.83;;
43070;SDS011;36278;47.952;21.714;2024-02-21T03:44:47;46.47;;;35.23;;
43070;SDS011;36278;47.952;21.714;2024-02-21T03:47:13;48.30;;;38.10;;
43070;SDS011;36278;47.952;21.714;2024-02-21T03:49:38;48.03;;;38.07;;
43070;SDS011;36278;47.952;21.714;2024-02-21T03:52:04;51.13;;;40.70;;
43070;SDS011;36278;47.952;21.714;2024-02-21T03:54:29;54.20;;;42.50;;
43070;SDS011;36278;47.952;21.714;2024-02-21T03:56:55;53.37;;;42.23;;
43070;SDS011;36278;47.952;21.714;2024-02-21T03:59:20;63.60;;;43.03;;
43070;SDS011;36278;47.952;21.714;2024-02-21T04:01:45;56.40;;;43.73;;
43070;SDS011;36278;47.952;21.714;2024-02-21T04:04:11;54.13;;;41.90;;
43070;SDS011;36278;47.952;21.714;2024-02-21T04:06:37;51.20;;;38.17;;
43070;SDS011;36278;47.952;21.714;2024-02-21T04:09:10;44.90;;;37.17;;
43070;SDS011;36278;47.952;21.714;2024-02-21T04:11:36;47.60;;;37.63;;
43070;SDS011;36278;47.952;21.714;2024-02-21T04:14:01;49.13;;;37.03;;
43070;SDS011;36278;47.952;21.714;2024-02-21T04:16:27;47.47;;;37.93;;
43070;SDS011;36278;47.952;21.714;2024-02-21T04:18:52;49.30;;;38.57;;
43070;SDS011;36278;47.952;21.714;2024-02-21T04:21:17;52.07;;;38.90;;
43070;SDS011;36278;47.952;21.714;2024-02-21T04:23:43;53.07;;;40.57;;
43070;SDS011;36278;47.952;21.714;2024-02-21T04:26:08;49.67;;;39.23;;
43070;SDS011;36278;47.952;21.714;2024-02-21T04:28:34;51.60;;;41.20;;
43070;SDS011;36278;47.952;21.714;2024-02-21T04:30:59;53.67;;;40.80;;
43070;SDS011;36278;47.952;21.714;2024-02-21T04:33:25;54.13;;;41.87;;
43070;SDS011;36278;47.952;21.714;2024-02-21T04:35:50;51.10;;;40.97;;
43070;SDS011;36278;47.952;21.714;2024-02-21T04:38:16;57.00;;;44.37;;
43070;SDS011;36278;47.952;21.714;2024-02-21T04:40:42;57.23;;;42.20;;
43070;SDS011;36278;47.952;21.714;2024-02-21T04:43:08;57.47;;;42.80;;
43070;SDS011;36278;47.952;21.714;2024-02-21T04:45:33;61.40;;;45.70;;
43070;SDS011;36278;47.952;21.714;2024-02-21T04:47:58;67.43;;;48.33;;
43070;SDS011;36278;47.952;21.714;2024-02-21T04:50:24;69.13;;;47.47;;
43070;SDS011;36278;47.952;21.714;2024-02-21T04:52:49;73.53;;;48.40;;
43070;SDS011;36278;47.952;21.714;2024-02-21T04:55:15;69.10;;;48.90;;
43070;SDS011;36278;47.952;21.714;2024-02-21T04:57:40;70.90;;;49.00;;
43070;SDS011;36278;47.952;21.714;2024-02-21T05:00:06;70.83;;;49.37;;
43070;SDS011;36278;47.952;21.714;2024-02-21T05:02:32;68.87;;;48.70;;
43070;SDS011;36278;47.952;21.714;2024-02-21T05:04:57;71.77;;;48.20;;
43070;SDS011;36278;47.952;21.714;2024-02-21T05:07:23;72.80;;;47.40;;
43070;SDS011;36278;47.952;21.714;2024-02-21T05:09:48;69.40;;;47.17;;
43070;SDS011;36278;47.952;21.714;2024-02-21T05:12:14;68.10;;;46.57;;
43070;SDS011;36278;47.952;21.714;2024-02-21T05:14:39;63.03;;;41.33;;
43070;SDS011;36278;47.952;21.714;2024-02-21T05:17:04;65.20;;;44.03;;
43070;SDS011;36278;47.952;21.714;2024-02-21T05:19:30;55.50;;;39.73;;
43070;SDS011;36278;47.952;21.714;2024-02-21T05:21:55;57.27;;;41.23;;
43070;SDS011;36278;47.952;21.714;2024-02-21T05:24:21;53.07;;;38.93;;
43070;SDS011;36278;47.952;21.714;2024-02-21T05:26:46;54.13;;;39.27;;
43070;SDS011;36278;47.952;21.714;2024-02-21T05:29:12;54.87;;;40.30;;
43070;SDS011;36278;47.952;21.714;2024-02-21T05:34:18;55.03;;;39.77;;
43070;SDS011;36278;47.952;21.714;2024-02-21T05:36:44;55.57;;;39.80;;
43070;SDS011;36278;47.952;21.714;2024-02-21T05:39:09;54.57;;;38.37;;
43070;SDS011;36278;47.952;21.714;2024-02-21T05:41:35;51.33;;;37.87;;
43070;SDS011;36278;47.952;21.714;2024-02-21T05:44:00;60.33;;;39.37;;
43070;SDS011;36278;47.952;21.714;2024-02-21T05:46:26;53.17;;;38.20;;
43070;SDS011;36278;47.952;21.714;2024-02-21T05:48:51;53.80;;;37.43;;
43070;SDS011;36278;47.952;21.714;2024-02-21T05:51:17;51.47;;;36.97;;
43070;SDS011;36278;47.952;21.714;2024-02-21T05:53:42;52.33;;;37.13;;
43070;SDS011;36278;47.952;21.714;2024-02-21T05:56:11;53.87;;;38.37;;
43070;SDS011;36278;47.952;21.714;2024-02-21T05:58:37;52.43;;;36.67;;
43070;SDS011;36278;47.952;21.714;2024-02-21T06:01:03;53.83;;;36.83;;
43070;SDS011;36278;47.952;21.714;2024-02-21T06:03:29;58.77;;;37.27;;
43070;SDS011;36278;47.952;21.714;2024-02-21T06:05:55;57.53;;;38.13;;
43070;SDS011;36278;47.952;21.714;2024-02-21T06:08:20;55.33;;;37.87;;
43070;SDS011;36278;47.952;21.714;2024-02-21T06:10:46;58.00;;;37.50;;
43070;SDS011;36278;47.952;21.714;2024-02-21T06:13:12;56.50;;;38.33;;
43070;SDS011;36278;47.952;21.714;2024-02-21T06:15:37;58.67;;;38.70;;
43070;SDS011;36278;47.952;21.714;2024-02-21T06:18:03;54.70;;;39.17;;
43070;SDS011;36278;47.952;21.714;2024-02-21T06:20:28;56.20;;;38.60;;
43070;SDS011;36278;47.952;21.714;2024-02-21T06:22:54;53.13;;;36.43;;
43070;SDS011;36278;47.952;21.714;2024-02-21T06:25:19;54.97;;;38.27;;
43070;SDS011;36278;47.952;21.714;2024-02-21T06:27:45;54.87;;;38.67;;
43070;SDS011;36278;47.952;21.714;2024-02-21T06:30:10;56.30;;;37.53;;
43070;SDS011;36278;47.952;21.714;2024-02-21T06:32:36;56.43;;;38.90;;
43070;SDS011;36278;47.952;21.714;2024-02-21T06:35:01;53.10;;;36.43;;
43070;SDS011;36278;47.952;21.714;2024-02-21T06:37:30;59.83;;;38.30;;
43070;SDS011;36278;47.952;21.714;2024-02-21T06:39:57;56.30;;;38.97;;
43070;SDS011;36278;47.952;21.714;2024-02-21T06:42:24;59.67;;;40.80;;
43070;SDS011;36278;47.952;21.714;2024-02-21T06:44:49;57.47;;;40.07;;
43070;SDS011;36278;47.952;21.714;2024-02-21T06:47:15;54.23;;;38.30;;
43070;SDS011;36278;47.952;21.714;2024-02-21T06:49:41;59.00;;;39.67;;
43070;SDS011;36278;47.952;21.714;2024-02-21T06:52:07;56.40;;;39.03;;
43070;SDS011;36278;47.952;21.714;2024-02-21T06:54:32;54.77;;;36.73;;
43070;SDS011;36278;47.952;21.714;2024-02-21T06:56:58;54.43;;;37.17;;
43070;SDS011;36278;47.952;21.714;2024-02-21T06:59:23;56.30;;;36.33;;
43070;SDS011;36278;47.952;21.714;2024-02-21T07:01:52;52.00;;;34.93;;
43070;SDS011;36278;47.952;21.714;2024-02-21T07:04:19;53.93;;;35.67;;
43070;SDS011;36278;47.952;21.714;2024-02-21T07:06:45;53.43;;;34.10;;
43070;SDS011;36278;47.952;21.714;2024-02-21T07:09:10;45.43;;;32.30;;
43070;SDS011;36278;47.952;21.714;2024-02-21T07:11:36;41.43;;;28.40;;
43070;SDS011;36278;47.952;21.714;2024-02-21T07:14:01;43.43;;;30.50;;
43070;SDS011;36278;47.952;21.714;2024-02-21T07:16:27;38.73;;;26.60;;
43070;SDS011;36278;47.952;21.714;2024-02-21T07:18:53;37.83;;;27.33;;
43070;SDS011;36278;47.952;21.714;2024-02-21T07:21:20;34.83;;;25.43;;
43070;SDS011;36278;47.952;21.714;2024-02-21T07:23:45;35.73;;;24.73;;
43070;SDS011;36278;47.952;21.714;2024-02-21T07:26:11;31.83;;;23.37;;
43070;SDS011;36278;47.952;21.714;2024-02-21T07:28:36;33.77;;;23.63;;
43070;SDS011;36278;47.952;21.714;2024-02-21T07:31:03;32.67;;;23.03;;
43070;SDS011;36278;47.952;21.714;2024-02-21T07:33:28;31.83;;;20.40;;
43070;SDS011;36278;47.952;21.714;2024-02-21T07:35:56;27.33;;;19.97;;
43070;SDS011;36278;47.952;21.714;2024-02-21T07:38:21;30.20;;;20.97;;
43070;SDS011;36278;47.952;21.714;2024-02-21T07:40:47;27.50;;;20.73;;
43070;SDS011;36278;47.952;21.714;2024-02-21T07:43:13;27.17;;;19.37;;
43070;SDS011;36278;47.952;21.714;2024-02-21T07:45:38;31.70;;;21.53;;
43070;SDS011;36278;47.952;21.714;2024-02-21T07:48:07;29.30;;;20.70;;
43070;SDS011;36278;47.952;21.714;2024-02-21T07:50:33;28.40;;;20.10;;
43070;SDS011;36278;47.952;21.714;2024-02-21T07:52:58;31.23;;;21.27;;
43070;SDS011;36278;47.952;21.714;2024-02-21T07:55:23;31.07;;;22.23;;
43070;SDS011;36278;47.952;21.714;2024-02-21T07:57:49;31.97;;;22.77;;
43070;SDS011;36278;47.952;21.714;2024-02-21T08:00:15;30.50;;;20.90;;
43070;SDS011;36278;47.952;21.714;2024-02-21T08:02:48;29.67;;;21.50;;
43070;SDS011;36278;47.952;21.714;2024-02-21T08:05:14;30.63;;;21.70;;
43070;SDS011;36278;47.952;21.714;2024-02-21T08:07:39;33.17;;;24.10;;
43070;SDS011;36278;47.952;21.714;2024-02-21T08:10:04;30.97;;;21.83;;
43070;SDS011;36278;47.952;21.714;2024-02-21T08:12:33;34.27;;;24.17;;
43070;SDS011;36278;47.952;21.714;2024-02-21T08:14:59;33.63;;;24.53;;
43070;SDS011;36278;47.952;21.714;2024-02-21T08:17:24;33.93;;;23.07;;
43070;SDS011;36278;47.952;21.714;2024-02-21T08:19:49;31.40;;;23.10;;
43070;SDS011;36278;47.952;21.714;2024-02-21T08:22:15;30.43;;;21.60;;
43070;SDS011;36278;47.952;21.714;2024-02-21T08:24:41;32.33;;;21.33;;
43070;SDS011;36278;47.952;21.714;2024-02-21T08:27:07;32.00;;;21.27;;
43070;SDS011;36278;47.952;21.714;2024-02-21T08:29:32;32.93;;;22.13;;
43070;SDS011;36278;47.952;21.714;2024-02-21T08:31:58;31.97;;;20.93;;
43070;SDS011;36278;47.952;21.714;2024-02-21T08:34:23;29.63;;;19.93;;
43070;SDS011;36278;47.952;21.714;2024-02-21T08:36:49;26.93;;;19.47;;
43070;SDS011;36278;47.952;21.714;2024-02-21T08:39:14;29.30;;;19.73;;
43070;SDS011;36278;47.952;21.714;2024-02-21T08:41:42;28.63;;;20.03;;
43070;SDS011;36278;47.952;21.714;2024-02-21T08:44:07;27.40;;;18.83;;
43070;SDS011;36278;47.952;21.714;2024-02-21T08:46:33;27.27;;;19.03;;
43070;SDS011;36278;47.952;21.714;2024-02-21T08:48:58;23.97;;;16.90;;
43070;SDS011;36278;47.952;21.714;2024-02-21T08:51:24;23.43;;;16.33;;
43070;SDS011;36278;47.952;21.714;2024-02-21T08:53:50;24.57;;;15.90;;
43070;SDS011;36278;47.952;21.714;2024-02-21T08:56:16;24.97;;;16.43;;
43070;SDS011;36278;47.952;21.714;2024-02-21T08:58:42;24.90;;;14.83;;
43070;SDS011;36278;47.952;21.714;2024-02-21T09:01:08;23.77;;;16.07;;
43070;SDS011;36278;47.952;21.714;2024-02-21T09:03:36;22.27;;;16.37;;
43070;SDS011;36278;47.952;21.714;2024-02-21T09:06:06;21.77;;;15.07;;
43070;SDS011;36278;47.952;21.714;2024-02-21T09:08:32;19.27;;;15.23;;
43070;SDS011;36278;47.952;21.714;2024-02-21T09:10:59;23.07;;;15.63;;
43070;SDS011;36278;47.952;21.714;2024-02-21T09:13:25;20.03;;;14.97;;
43070;SDS011;36278;47.952;21.714;2024-02-21T09:15:50;22.73;;;15.67;;
43070;SDS011;36278;47.952;21.714;2024-02-21T09:18:16;21.20;;;15.07;;
43070;SDS011;36278;47.952;21.714;2024-02-21T09:20:44;20.70;;;14.63;;
43070;SDS011;36278;47.952;21.714;2024-02-21T09:23:10;22.27;;;15.30;;
43070;SDS011;36278;47.952;21.714;2024-02-21T09:25:37;20.40;;;14.53;;
43070;SDS011;36278;47.952;21.714;2024-02-21T09:28:02;19.13;;;14.63;;
43070;SDS011;36278;47.952;21.714;2024-02-21T09:30:28;17.47;;;13.57;;
43070;SDS011;36278;47.952;21.714;2024-02-21T09:32:54;19.73;;;13.33;;
43070;SDS011;36278;47.952;21.714;2024-02-21T09:35:19;18.67;;;14.40;;
43070;SDS011;36278;47.952;21.714;2024-02-21T09:37:48;20.40;;;14.27;;
43070;SDS011;36278;47.952;21.714;2024-02-21T09:40:14;23.23;;;14.60;;
43070;SDS011;36278;47.952;21.714;2024-02-21T09:42:42;21.00;;;14.30;;
43070;SDS011;36278;47.952;21.714;2024-02-21T09:45:21;16.83;;;12.30;;
43070;SDS011;36278;47.952;21.714;2024-02-21T09:47:52;20.60;;;14.97;;
43070;SDS011;36278;47.952;21.714;2024-02-21T09:50:41;19.73;;;13.40;;
43070;SDS011;36278;47.952;21.714;2024-02-21T09:53:09;19.87;;;13.07;;
43070;SDS011;36278;47.952;21.714;2024-02-21T09:55:37;16.20;;;12.10;;
43070;SDS011;36278;47.952;21.714;2024-02-21T09:58:05;16.73;;;12.13;;
43070;SDS011;36278;47.952;21.714;2024-02-21T10:00:31;17.90;;;12.43;;
43070;SDS011;36278;47.952;21.714;2024-02-21T10:02:57;17.50;;;11.73;;
43070;SDS011;36278;47.952;21.714;2024-02-21T10:05:23;14.40;;;9.67;;
43070;SDS011;36278;47.952;21.714;2024-02-21T10:07:50;13.67;;;8.30;;
43070;SDS011;36278;47.952;21.714;2024-02-21T10:10:16;14.43;;;8.93;;
43070;SDS011;36278;47.952;21.714;2024-02-21T10:12:51;9.27;;;6.20;;
43070;SDS011;36278;47.952;21.714;2024-02-21T10:15:22;14.03;;;7.17;;
43070;SDS011;36278;47.952;21.714;2024-02-21T10:17:50;10.20;;;7.27;;
43070;SDS011;36278;47.952;21.714;2024-02-21T10:20:23;13.77;;;8.63;;
43070;SDS011;36278;47.952;21.714;2024-02-21T10:22:49;19.70;;;9.77;;
43070;SDS011;36278;47.952;21.714;2024-02-21T10:25:25;16.50;;;9.87;;
43070;SDS011;36278;47.952;21.714;2024-02-21T10:27:50;12.63;;;9.47;;
43070;SDS011;36278;47.952;21.714;2024-02-21T10:30:16;15.53;;;9.67;;
43070;SDS011;36278;47.952;21.714;2024-02-21T10:32:48;15.33;;;9.27;;
43070;SDS011;36278;47.952;21.714;2024-02-21T10:37:50;12.67;;;9.80;;
43070;SDS011;36278;47.952;21.714;2024-02-21T10:40:20;13.47;;;9.37;;
43070;SDS011;36278;47.952;21.714;2024-02-21T10:42:46;13.70;;;9.27;;
43070;SDS011;36278;47.952;21.714;2024-02-21T10:45:14;17.17;;;9.43;;
43070;SDS011;36278;47.952;21.714;2024-02-21T10:47:41;19.03;;;10.20;;
43070;SDS011;36278;47.952;21.714;2024-02-21T10:50:13;13.40;;;9.75;;
43070;SDS011;36278;47.952;21.714;2024-02-21T10:53:02;11.63;;;8.90;;
43070;SDS011;36278;47.952;21.714;2024-02-21T10:55:34;15.20;;;9.07;;
43070;SDS011;36278;47.952;21.714;2024-02-21T10:58:04;20.87;;;9.20;;
43070;SDS011;36278;47.952;21.714;2024-02-21T11:00:30;12.43;;;8.10;;
43070;SDS011;36278;47.952;21.714;2024-02-21T11:02:57;12.10;;;8.80;;
43070;SDS011;36278;47.952;21.714;2024-02-21T11:05:24;12.17;;;8.20;;
43070;SDS011;36278;47.952;21.714;2024-02-21T11:07:50;14.60;;;8.80;;
43070;SDS011;36278;47.952;21.714;2024-02-21T11:10:20;11.47;;;7.80;;
43070;SDS011;36278;47.952;21.714;2024-02-21T11:12:48;12.90;;;9.13;;
43070;SDS011;36278;47.952;21.714;2024-02-21T11:15:13;13.77;;;8.70;;
43070;SDS011;36278;47.952;21.714;2024-02-21T11:17:40;11.83;;;7.97;;
43070;SDS011;36278;47.952;21.714;2024-02-21T11:20:14;10.77;;;7.60;;
43070;SDS011;36278;47.952;21.714;2024-02-21T11:22:43;11.23;;;8.07;;
43070;SDS011;36278;47.952;21.714;2024-02-21T11:25:08;12.97;;;8.43;;
43070;SDS011;36278;47.952;21.714;2024-02-21T11:27:36;12.67;;;9.10;;
43070;SDS011;36278;47.952;21.714;2024-02-21T11:30:04;12.27;;;8.20;;
43070;SDS011;36278;47.952;21.714;2024-02-21T11:32:30;13.70;;;8.60;;
43070;SDS011;36278;47.952;21.714;2024-02-21T11:37:33;12.53;;;8.47;;
43070;SDS011;36278;47.952;21.714;2024-02-21T11:40:02;11.35;;;8.30;;
43070;SDS011;36278;47.952;21.714;2024-02-21T11:42:28;13.17;;;7.53;;
43070;SDS011;36278;47.952;21.714;2024-02-21T11:44:54;10.20;;;7.37;;
43070;SDS011;36278;47.952;21.714;2024-02-21T11:47:24;10.53;;;7.17;;
43070;SDS011;36278;47.952;21.714;2024-02-21T11:49:50;9.43;;;6.80;;
43070;SDS011;36278;47.952;21.714;2024-02-21T11:52:22;8.27;;;5.87;;
43070;SDS011;36278;47.952;21.714;2024-02-21T11:54:52;8.87;;;6.03;;
43070;SDS011;36278;47.952;21.714;2024-02-21T11:57:19;6.87;;;4.27;;
43070;SDS011;36278;47.952;21.714;2024-02-21T11:59:45;5.80;;;4.27;;
43070;SDS011;36278;47.952;21.714;2024-02-21T12:02:15;9.33;;;4.47;;
43070;SDS011;36278;47.952;21.714;2024-02-21T12:04:41;5.10;;;2.73;;
43070;SDS011;36278;47.952;21.714;2024-02-21T12:07:07;6.67;;;2.30;;
43070;SDS011;36278;47.952;21.714;2024-02-21T12:09:34;5.43;;;3.47;;
43070;SDS011;36278;47.952;21.714;2024-02-21T12:12:00;4.20;;;3.40;;
43070;SDS011;36278;47.952;21.714;2024-02-21T12:14:28;7.67;;;4.67;;
43070;SDS011;36278;47.952;21.714;2024-02-21T12:16:55;5.63;;;4.17;;
43070;SDS011;36278;47.952;21.714;2024-02-21T12:19:21;6.27;;;4.00;;
43070;SDS011;36278;47.952;21.714;2024-02-21T12:21:47;5.40;;;3.80;;
43070;SDS011;36278;47.952;21.714;2024-02-21T12:26:46;5.73;;;3.80;;
43070;SDS011;36278;47.952;21.714;2024-02-21T12:29:12;6.73;;;4.43;;
43070;SDS011;36278;47.952;21.714;2024-02-21T12:31:37;9.47;;;4.27;;
43070;SDS011;36278;47.952;21.714;2024-02-21T12:34:03;7.10;;;3.70;;
43070;SDS011;36278;47.952;21.714;2024-02-21T12:36:33;7.17;;;4.03;;
43070;SDS011;36278;47.952;21.714;2024-02-21T12:38:59;8.10;;;4.70;;
43070;SDS011;36278;47.952;21.714;2024-02-21T12:41:25;8.70;;;5.60;;
43070;SDS011;36278;47.952;21.714;2024-02-21T12:43:52;7.77;;;5.27;;
43070;SDS011;36278;47.952;21.714;2024-02-21T12:46:17;7.17;;;5.03;;
43070;SDS011;36278;47.952;21.714;2024-02-21T12:48:43;7.10;;;5.13;;
43070;SDS011;36278;47.952;21.714;2024-02-21T12:51:08;5.80;;;4.43;;
43070;SDS011;36278;47.952;21.714;2024-02-21T12:53:34;7.37;;;4.27;;
43070;SDS011;36278;47.952;21.714;2024-02-21T12:55:59;8.07;;;5.07;;
43070;SDS011;36278;47.952;21.714;2024-02-21T12:58:25;5.77;;;4.50;;
43070;SDS011;36278;47.952;21.714;2024-02-21T13:00:51;8.43;;;4.60;;
43070;SDS011;36278;47.952;21.714;2024-02-21T13:03:16;6.33;;;4.33;;
43070;SDS011;36278;47.952;21.714;2024-02-21T13:05:41;5.63;;;4.00;;
43070;SDS011;36278;47.952;21.714;2024-02-21T13:08:08;6.40;;;4.17;;
43070;SDS011;36278;47.952;21.714;2024-02-21T13:10:34;6.97;;;4.30;;
43070;SDS011;36278;47.952;21.714;2024-02-21T13:13:00;6.68;;;3.95;;
43070;SDS011;36278;47.952;21.714;2024-02-21T13:15:29;5.57;;;3.63;;
43070;SDS011;36278;47.952;21.714;2024-02-21T13:17:55;6.00;;;3.30;;
43070;SDS011;36278;47.952;21.714;2024-02-21T13:20:22;5.85;;;3.50;;
43070;SDS011;36278;47.952;21.714;2024-02-21T13:22:47;5.75;;;3.42;;
43070;SDS011;36278;47.952;21.714;2024-02-21T13:25:14;6.78;;;3.22;;
43070;SDS011;36278;47.952;21.714;2024-02-21T13:27:45;6.22;;;4.18;;
43070;SDS011;36278;47.952;21.714;2024-02-21T13:30:11;6.40;;;3.85;;
43070;SDS011;36278;47.952;21.714;2024-02-21T13:32:37;6.67;;;4.07;;
43070;SDS011;36278;47.952;21.714;2024-02-21T13:35:03;6.43;;;4.00;;
43070;SDS011;36278;47.952;21.714;2024-02-21T13:37:29;8.33;;;4.63;;
43070;SDS011;36278;47.952;21.714;2024-02-21T13:39:54;7.60;;;4.60;;
43070;SDS011;36278;47.952;21.714;2024-02-21T13:42:21;6.97;;;4.37;;
43070;SDS011;36278;47.952;21.714;2024-02-21T13:44:46;5.60;;;4.03;;
43070;SDS011;36278;47.952;21.714;2024-02-21T13:47:15;7.30;;;4.10;;
43070;SDS011;36278;47.952;21.714;2024-02-21T13:49:41;6.30;;;3.95;;
43070;SDS011;36278;47.952;21.714;2024-02-21T13:52:07;4.63;;;3.40;;
43070;SDS011;36278;47.952;21.714;2024-02-21T13:54:34;6.25;;;3.80;;
43070;SDS011;36278;47.952;21.714;2024-02-21T13:57:00;5.45;;;3.33;;
43070;SDS011;36278;47.952;21.714;2024-02-21T13:59:27;5.25;;;3.97;;
43070;SDS011;36278;47.952;21.714;2024-02-21T14:01:53;6.50;;;3.60;;
43070;SDS011;36278;47.952;21.714;2024-02-21T14:04:19;4.82;;;3.40;;
43070;SDS011;36278;47.952;21.714;2024-02-21T14:06:45;6.03;;;3.85;;
43070;SDS011;36278;47.952;21.714;2024-02-21T14:09:11;4.95;;;3.65;;
43070;SDS011;36278;47.952;21.714;2024-02-21T14:11:37;6.93;;;3.80;;
43070;SDS011;36278;47.952;21.714;2024-02-21T14:14:07;6.60;;;3.63;;
43070;SDS011;36278;47.952;21.714;2024-02-21T14:16:32;5.47;;;3.50;;
43070;SDS011;36278;47.952;21.714;2024-02-21T14:18:58;3.83;;;2.85;;
43070;SDS011;36278;47.952;21.714;2024-02-21T14:21:24;5.57;;;3.45;;